Stanley, United Kingdom
Current Conditions -  °F | °C
As of 12:20 PM on Saturday 20 Dec 2014 (Local Time) from EGNT Reporting Station
Few Clouds Few Clouds  
Wind Chill:   Ceiling: Unl
Heat Index:   Visibility: 6mi
Dew Point:   Wind: 18mph
Humidity: 76%   Direction: 280°W
Pressure: 30.06"   Gusts: NA
Location:  54.87°N, 1.7°W
Report Text: EGNT 201220Z 28016KT 9999 FEW038 07/03 Q1018
Loading
Personal Weather Stations






























Interactive Weather Map New forecast layout! Learn more

10-Day Weather Forecast

Advertisements
Track Severe Weather on mobile